Terminal Aerodrome Forecast
Issued by NWS Atlanta, GA

Current Version | Previous Version | Text Only | Print | Product List | Glossary On
Versions: 1 2 3 4 5 6 7 8 9 10 11 12 13 14 15 16 17 18
000
FTUS42 KFFC 022141 AAA
TAFCSG
TAF AMD
KCSG 022141Z 0222/0318 33006KT P6SM SCT025 BKN050
      TEMPO 0222/0224 -SHRA BKN025
     FM030000 04005KT P6SM OVC015
     FM030600 07003KT 4SM BR OVC008
     FM030900 10004KT 3SM -RA BR OVC004
     FM031500 13007KT 4SM BR OVC004=

USA.gov is the U.S. government's official web portal to all federal, state and local government web resources and services.